KRST/RST METAR and TAF weather

Enter ICAO airport designator
Station Type Date Time Source
KRST METAR 2019/10/23 02:54 UTC NOAA

KRST 230254Z 28016G24KT 10SM OVC060 06/M01 A2972 RMK AO2 PK WND 26029/0236 SLP072 T00561011 51014


Station Type Date Time Source
KRST Decoded METAR 2019/10/23 02:54 UTC NOAA

ROCHESTER INTERNATIONAL AIRPORT , MN, United States (KRST) 43-54N 092-30W 403M
Oct 22, 2019 - 10:54 PM EDT / 2019.10.23 0254 UTC
Wind: from the W (280 degrees) at 18 MPH (16 KT) gusting to 28 MPH (24 KT):0
Visibility: 10 mile(s):0
Sky conditions: overcast
Temperature: 42.1 F (5.6 C)
Dew Point: 30.0 F (-1.1 C)
Relative Humidity: 61%
Pressure (altimeter): 29.72 in. Hg (1006 hPa)
Pressure tendency: 0.04 inches (1.4 hPa) higher than three hours ago
ob: KRST 230254Z 28016G24KT 10SM OVC060 06/M01 A2972 RMK AO2 PK WND 26029/0236 SLP072 T00561011 51014
cycle: 3

Station Type Date Time Source
KRST TAF 2019/10/22 22:15 UTC NOAA

TAF
AMD KRST 222212Z 2222/2318 28023G34KT P6SM OVC035
FM230300 28014G22KT P6SM BKN045
FM230700 28010KT P6SM SCT100

Example: see airport list